createdAt,value
2023-02-20T00:00:56.525Z,7.69
2023-02-20T00:03:24.164Z,7.66
2023-02-20T00:05:52.326Z,7.62
2023-02-20T00:08:20.072Z,7.81
2023-02-20T00:10:48.191Z,7.80
2023-02-20T00:13:17.122Z,7.82
2023-02-20T00:15:44.734Z,7.83
2023-02-20T00:18:12.430Z,7.62
2023-02-20T00:20:40.573Z,7.72
2023-02-20T00:23:08.157Z,7.66
2023-02-20T00:25:36.288Z,7.72
2023-02-20T00:28:04.238Z,7.62
2023-02-20T00:30:33.527Z,7.57
2023-02-20T00:33:01.442Z,7.58
2023-02-20T00:35:30.052Z,7.70
2023-02-20T00:37:57.874Z,7.57
2023-02-20T00:40:26.830Z,7.72
2023-02-20T00:42:54.456Z,7.77
2023-02-20T00:45:23.125Z,7.60
2023-02-20T00:47:52.102Z,7.63
2023-02-20T00:50:20.427Z,7.65
2023-02-20T00:52:48.104Z,7.68
2023-02-20T00:55:16.203Z,7.73
2023-02-20T00:57:46.372Z,7.77
2023-02-20T01:00:21.449Z,7.67
2023-02-20T01:02:49.340Z,7.64
2023-02-20T01:05:19.110Z,7.73
2023-02-20T01:07:46.766Z,7.79
2023-02-20T01:10:15.744Z,7.78
2023-02-20T01:12:43.363Z,7.77
2023-02-20T01:15:16.532Z,7.78
2023-02-20T01:17:44.117Z,7.85
2023-02-20T01:20:12.956Z,7.95
2023-02-20T01:22:42.393Z,8.03
2023-02-20T01:25:11.900Z,7.91
2023-02-20T01:27:40.235Z,8.15
2023-02-20T01:30:09.601Z,7.82
2023-02-20T01:32:37.551Z,7.79
2023-02-20T01:35:06.272Z,7.86
2023-02-20T01:37:35.102Z,7.78
2023-02-20T01:40:04.913Z,7.85
2023-02-20T01:42:35.390Z,7.81
2023-02-20T01:45:34.956Z,7.75
2023-02-20T01:48:03.181Z,7.84
2023-02-20T01:50:34.415Z,7.75
2023-02-20T01:53:05.605Z,7.78
2023-02-20T01:55:39.305Z,7.95
2023-02-20T01:58:11.904Z,8.01
2023-02-20T02:00:40.736Z,7.84
2023-02-20T02:03:11.233Z,7.85
2023-02-20T02:05:43.011Z,7.78
2023-02-20T02:08:12.173Z,7.85
2023-02-20T02:10:48.463Z,7.79
2023-02-20T02:13:16.094Z,7.83
2023-02-20T02:15:44.037Z,7.97
2023-02-20T02:18:45.781Z,7.99
2023-02-20T02:21:37.981Z,7.93
2023-02-20T02:24:39.593Z,7.67
2023-02-20T02:27:30.680Z,7.87
2023-02-20T02:30:25.765Z,7.68
2023-02-20T02:33:18.501Z,7.79
2023-02-20T02:36:19.676Z,7.80
2023-02-20T02:38:55.842Z,7.72
2023-02-20T02:41:34.449Z,7.90
2023-02-20T02:44:11.026Z,7.76
2023-02-20T02:46:44.396Z,7.70
2023-02-20T02:49:21.579Z,7.64
2023-02-20T02:51:53.411Z,7.73
2023-02-20T02:54:27.181Z,7.68
2023-02-20T02:57:21.203Z,7.52
2023-02-20T02:59:51.185Z,7.48
2023-02-20T03:02:21.667Z,7.38
2023-02-20T03:04:52.435Z,7.42
2023-02-20T03:07:22.199Z,7.21
2023-02-20T03:09:55.150Z,6.89
2023-02-20T03:12:23.937Z,6.98
2023-02-20T03:15:14.889Z,6.92
2023-02-20T03:17:49.309Z,6.99
2023-02-20T03:20:23.438Z,6.96
2023-02-20T03:22:57.064Z,6.89
2023-02-20T03:25:27.424Z,6.75
2023-02-20T03:28:00.441Z,6.71
2023-02-20T03:30:31.536Z,6.72
2023-02-20T03:33:23.049Z,6.63
2023-02-20T03:36:10.581Z,6.79
2023-02-20T03:39:00.804Z,6.69
2023-02-20T03:41:48.989Z,6.83
2023-02-20T03:44:19.700Z,6.78
2023-02-20T03:46:51.290Z,6.81
2023-02-20T03:49:24.422Z,6.81
2023-02-20T03:52:01.607Z,6.64
2023-02-20T03:54:40.519Z,6.30
2023-02-20T03:57:13.836Z,6.04
2023-02-20T03:59:48.550Z,6.04
2023-02-20T04:02:21.800Z,6.02
2023-02-20T04:04:53.804Z,5.82
2023-02-20T04:07:28.640Z,5.85
2023-02-20T04:10:01.430Z,5.82
2023-02-20T04:12:35.217Z,5.62
2023-02-20T04:15:04.038Z,5.56
2023-02-20T04:17:47.039Z,5.47
2023-02-20T04:20:15.532Z,5.46
2023-02-20T04:22:56.677Z,5.50
2023-02-20T04:25:35.626Z,5.58
2023-02-20T04:28:06.458Z,5.63
2023-02-20T04:30:45.322Z,5.62
2023-02-20T04:33:14.659Z,5.63
2023-02-20T04:35:42.950Z,5.76
2023-02-20T04:38:12.379Z,5.80
2023-02-20T04:40:41.589Z,5.58
2023-02-20T04:43:10.064Z,5.71
2023-02-20T04:45:37.784Z,5.79
2023-02-20T04:48:06.608Z,5.72
2023-02-20T04:50:35.832Z,5.62
2023-02-20T04:53:05.273Z,5.53
2023-02-20T04:55:32.929Z,5.28
2023-02-20T04:58:07.994Z,5.54
2023-02-20T05:00:49.273Z,5.25
2023-02-20T05:03:17.292Z,5.15
2023-02-20T05:05:44.861Z,5.20
2023-02-20T05:08:13.095Z,5.18
2023-02-20T05:10:40.758Z,5.13
2023-02-20T05:13:10.296Z,4.99
2023-02-20T05:15:37.916Z,5.00
2023-02-20T05:18:05.739Z,5.00
2023-02-20T05:20:51.003Z,4.97
2023-02-20T05:23:18.982Z,4.93
2023-02-20T05:25:46.579Z,4.81
2023-02-20T05:28:15.796Z,4.60
2023-02-20T05:30:43.453Z,4.78
2023-02-20T05:33:11.919Z,4.78
2023-02-20T05:35:40.685Z,4.90
2023-02-20T05:38:08.351Z,4.83
2023-02-20T05:40:36.046Z,4.66
2023-02-20T05:43:03.717Z,4.52
2023-02-20T05:45:32.633Z,4.47
2023-02-20T05:48:00.193Z,4.50
2023-02-20T05:50:46.407Z,4.49
2023-02-20T05:53:18.585Z,4.50
2023-02-20T05:55:46.750Z,4.64
2023-02-20T05:58:14.331Z,4.62
2023-02-20T06:00:43.281Z,4.62
2023-02-20T06:03:11.171Z,4.66
2023-02-20T06:05:39.318Z,4.71
2023-02-20T06:08:07.003Z,4.76
2023-02-20T06:10:35.496Z,4.78
2023-02-20T06:13:03.072Z,4.71
2023-02-20T06:15:30.979Z,4.63
2023-02-20T06:17:59.871Z,4.63
2023-02-20T06:20:27.746Z,4.83
2023-02-20T06:22:57.402Z,4.87
2023-02-20T06:25:26.032Z,4.81
2023-02-20T06:27:53.571Z,4.96
2023-02-20T06:30:21.711Z,4.82
2023-02-20T06:32:49.367Z,4.94
2023-02-20T06:35:18.339Z,4.94
2023-02-20T06:37:45.895Z,4.85
2023-02-20T06:40:13.800Z,4.87
2023-02-20T06:42:41.417Z,4.87
2023-02-20T06:45:12.834Z,4.70
2023-02-20T06:47:41.873Z,4.70
2023-02-20T06:50:10.427Z,4.88
2023-02-20T06:52:39.794Z,4.89
2023-02-20T06:55:07.574Z,4.93
2023-02-20T06:57:35.169Z,4.96
2023-02-20T07:00:03.131Z,4.96
2023-02-20T07:02:30.882Z,4.96
2023-02-20T07:04:58.650Z,5.09
2023-02-20T07:07:26.194Z,5.12
2023-02-20T07:09:55.314Z,5.13
2023-02-20T07:12:23.003Z,5.25
2023-02-20T07:14:52.297Z,5.46
2023-02-20T07:17:19.862Z,5.52
2023-02-20T07:19:47.562Z,5.76
2023-02-20T07:22:15.516Z,5.76
2023-02-20T07:24:43.783Z,5.94
2023-02-20T07:27:13.896Z,6.13
2023-02-20T07:29:42.432Z,6.24
2023-02-20T07:32:10.048Z,6.16
2023-02-20T07:34:37.754Z,6.40
2023-02-20T07:37:06.734Z,6.67
2023-02-20T07:39:34.326Z,6.72
2023-02-20T07:42:02.811Z,7.04
2023-02-20T07:44:53.318Z,7.31
2023-02-20T07:47:20.904Z,7.51
2023-02-20T07:49:48.552Z,7.60
2023-02-20T07:52:16.442Z,7.66
2023-02-20T07:54:44.306Z,7.80
2023-02-20T07:57:11.994Z,7.62
2023-02-20T07:59:39.643Z,7.60
2023-02-20T08:02:08.966Z,7.68
2023-02-20T08:04:36.529Z,7.65
2023-02-20T08:07:06.869Z,7.90
2023-02-20T08:09:34.723Z,7.89
2023-02-20T08:12:02.397Z,7.97
2023-02-20T08:14:31.310Z,8.06
2023-02-20T08:16:58.891Z,8.17
2023-02-20T08:19:27.890Z,8.15
2023-02-20T08:21:55.497Z,8.51
2023-02-20T08:24:23.159Z,8.50
2023-02-20T08:26:51.208Z,8.61
2023-02-20T08:29:18.945Z,8.76
2023-02-20T08:31:47.277Z,8.86
2023-02-20T08:34:14.926Z,9.08
2023-02-20T08:36:44.239Z,9.39
2023-02-20T08:39:11.816Z,9.01
2023-02-20T08:41:44.276Z,9.33
2023-02-20T08:44:12.208Z,9.61
2023-02-20T08:46:47.229Z,9.83
2023-02-20T08:49:15.057Z,10.10
2023-02-20T08:51:44.511Z,10.29
2023-02-20T08:54:12.176Z,10.37
2023-02-20T08:56:39.919Z,10.43
2023-02-20T08:59:07.492Z,10.47
2023-02-20T09:01:35.962Z,10.56
2023-02-20T09:04:03.671Z,10.97
2023-02-20T09:06:31.707Z,10.89
2023-02-20T09:09:00.658Z,10.87
2023-02-20T09:11:28.836Z,10.81
2023-02-20T09:13:56.630Z,11.05
2023-02-20T09:16:25.547Z,11.20
2023-02-20T09:18:57.450Z,11.48
2023-02-20T09:21:27.857Z,11.45
2023-02-20T09:23:55.526Z,11.51
2023-02-20T09:26:24.569Z,11.43
2023-02-20T09:28:52.192Z,11.68
2023-02-20T09:31:20.295Z,11.68
2023-02-20T09:33:51.406Z,11.96
2023-02-20T09:36:19.890Z,11.73
2023-02-20T09:38:47.504Z,12.03
2023-02-20T09:41:30.238Z,12.49
2023-02-20T09:44:05.245Z,12.57
2023-02-20T09:46:33.289Z,12.45
2023-02-20T09:49:06.887Z,12.57
2023-02-20T09:51:39.407Z,13.22
2023-02-20T09:54:11.677Z,12.91
2023-02-20T09:56:46.049Z,12.93
2023-02-20T09:59:17.437Z,13.34
2023-02-20T10:01:55.086Z,13.00
2023-02-20T10:04:27.314Z,13.06
2023-02-20T10:07:03.712Z,12.87
2023-02-20T10:09:31.529Z,13.32
2023-02-20T10:12:12.134Z,13.54
2023-02-20T10:14:54.264Z,14.05
2023-02-20T10:17:31.343Z,14.48
2023-02-20T10:20:10.756Z,15.14
2023-02-20T10:22:49.735Z,14.68
2023-02-20T10:25:22.436Z,14.52
2023-02-20T10:27:58.483Z,15.00
2023-02-20T10:30:31.093Z,15.38
2023-02-20T10:33:20.260Z,14.64
2023-02-20T10:35:51.392Z,15.21
2023-02-20T10:38:23.142Z,16.04
2023-02-20T10:40:58.794Z,15.63
2023-02-20T10:43:36.433Z,16.41
2023-02-20T10:46:12.775Z,16.35
2023-02-20T10:48:42.730Z,16.55
2023-02-20T10:51:15.173Z,16.48
2023-02-20T10:53:48.851Z,17.11
2023-02-20T10:56:19.695Z,16.83
2023-02-20T10:58:56.679Z,16.92
2023-02-20T11:01:27.295Z,15.47
2023-02-20T11:04:00.517Z,15.66
2023-02-20T11:06:34.115Z,16.42
2023-02-20T11:09:02.591Z,16.47
2023-02-20T11:11:34.390Z,15.97
2023-02-20T11:14:16.987Z,16.26
2023-02-20T11:16:49.290Z,16.45
2023-02-20T11:19:23.237Z,16.35
2023-02-20T11:21:52.580Z,16.64
2023-02-20T11:24:29.794Z,16.66
2023-02-20T11:27:01.176Z,16.45
2023-02-20T11:29:36.626Z,16.43
2023-02-20T11:32:34.483Z,15.80
2023-02-20T11:35:30.282Z,15.16
2023-02-20T11:38:30.294Z,15.66
2023-02-20T11:41:06.842Z,15.74
2023-02-20T11:43:37.141Z,15.84
2023-02-20T11:46:13.843Z,15.77
2023-02-20T11:49:00.514Z,15.28
2023-02-20T11:51:37.880Z,15.91
2023-02-20T11:54:16.280Z,15.73
2023-02-20T11:57:00.929Z,15.64
2023-02-20T11:59:32.597Z,15.74
2023-02-20T12:02:25.297Z,15.51
2023-02-20T12:05:09.657Z,15.48
2023-02-20T12:07:40.174Z,14.83
2023-02-20T12:10:23.078Z,15.21
2023-02-20T12:12:51.208Z,15.30
2023-02-20T12:15:22.184Z,15.12
2023-02-20T12:18:15.054Z,14.93
2023-02-20T12:20:48.949Z,15.38
2023-02-20T12:23:25.002Z,15.69
2023-02-20T12:26:06.568Z,14.70
2023-02-20T12:28:43.596Z,15.53
2023-02-20T12:31:36.347Z,15.31
2023-02-20T12:34:21.488Z,15.50
2023-02-20T12:36:55.114Z,14.93
2023-02-20T12:39:31.911Z,14.93
2023-02-20T12:42:09.748Z,14.66
2023-02-20T12:44:55.549Z,15.37
2023-02-20T12:47:30.862Z,14.92
2023-02-20T12:50:30.314Z,15.15
2023-02-20T12:53:21.357Z,15.10
2023-02-20T12:56:04.635Z,15.98
2023-02-20T12:58:43.029Z,15.94
2023-02-20T13:01:13.673Z,15.87
2023-02-20T13:03:48.656Z,15.46
2023-02-20T13:06:26.248Z,14.85
2023-02-20T13:09:06.097Z,14.23
2023-02-20T13:11:39.446Z,14.24
2023-02-20T13:14:24.566Z,14.47
2023-02-20T13:17:01.937Z,14.37
2023-02-20T13:19:36.425Z,14.76
2023-02-20T13:22:06.325Z,14.95
2023-02-20T13:24:35.784Z,15.03
2023-02-20T13:27:06.859Z,15.13
2023-02-20T13:29:37.501Z,15.18
2023-02-20T13:32:24.895Z,15.27
2023-02-20T13:34:52.887Z,15.20
2023-02-20T13:37:53.133Z,15.00
2023-02-20T13:40:38.701Z,14.86
2023-02-20T13:43:33.757Z,15.01
2023-02-20T13:46:25.015Z,14.95
2023-02-20T13:48:54.838Z,15.08
2023-02-20T13:51:31.232Z,15.03
2023-02-20T13:54:13.038Z,15.23
2023-02-20T13:56:47.882Z,14.97
2023-02-20T13:59:18.545Z,14.93
2023-02-20T14:02:00.435Z,15.02
2023-02-20T14:04:28.270Z,14.78
2023-02-20T14:06:58.746Z,14.97
2023-02-20T14:09:32.082Z,14.99
2023-02-20T14:12:08.055Z,14.78
2023-02-20T14:14:40.069Z,14.78
2023-02-20T14:17:10.865Z,15.07
2023-02-20T14:19:43.084Z,14.60
2023-02-20T14:22:30.614Z,14.66
2023-02-20T14:25:22.620Z,15.16
2023-02-20T14:27:50.738Z,15.31
2023-02-20T14:30:21.019Z,15.25
2023-02-20T14:32:52.036Z,15.19
2023-02-20T14:35:37.048Z,15.44
2023-02-20T14:38:15.608Z,16.07
2023-02-20T14:40:46.172Z,15.74
2023-02-20T14:43:17.706Z,16.00
2023-02-20T14:45:46.636Z,15.94
2023-02-20T14:48:26.638Z,16.20
2023-02-20T14:51:24.590Z,16.32
2023-02-20T14:53:59.186Z,16.24
2023-02-20T14:56:29.430Z,16.27
2023-02-20T14:58:56.988Z,16.08
2023-02-20T15:01:39.128Z,15.65
2023-02-20T15:04:12.967Z,15.74
2023-02-20T15:06:44.227Z,15.72
2023-02-20T15:09:22.035Z,15.68
2023-02-20T15:11:56.868Z,15.59
2023-02-20T15:14:28.190Z,15.73
2023-02-20T15:17:09.416Z,15.66
2023-02-20T15:19:40.298Z,15.51
2023-02-20T15:22:27.198Z,15.59
2023-02-20T15:24:55.730Z,15.66
2023-02-20T15:27:27.224Z,15.26
2023-02-20T15:30:14.945Z,15.04
2023-02-20T15:32:44.280Z,15.28
2023-02-20T15:35:17.548Z,15.59
2023-02-20T15:37:49.578Z,15.62
2023-02-20T15:40:22.603Z,15.63
2023-02-20T15:42:57.334Z,15.67
2023-02-20T15:45:25.654Z,15.76
2023-02-20T15:47:53.215Z,15.62
2023-02-20T15:50:21.266Z,15.28
2023-02-20T15:52:49.368Z,15.37
2023-02-20T15:55:20.292Z,15.55
2023-02-20T15:57:49.223Z,15.47
2023-02-20T16:00:24.302Z,15.34
2023-02-20T16:02:52.626Z,15.09
2023-02-20T16:05:20.588Z,15.13
2023-02-20T16:07:48.554Z,15.16
2023-02-20T16:10:17.374Z,15.04
2023-02-20T16:12:45.646Z,14.73
2023-02-20T16:15:17.119Z,13.98
2023-02-20T16:17:46.356Z,14.04
2023-02-20T16:20:18.697Z,14.22
2023-02-20T16:22:46.705Z,14.57
2023-02-20T16:25:17.845Z,14.56
2023-02-20T16:27:47.919Z,14.46
2023-02-20T16:30:32.366Z,14.32
2023-02-20T16:33:03.006Z,14.16
2023-02-20T16:35:30.814Z,13.52
2023-02-20T16:37:58.740Z,12.77
2023-02-20T16:40:26.313Z,12.22
2023-02-20T16:42:54.396Z,11.80
2023-02-20T16:45:22.395Z,11.54
2023-02-20T16:47:53.132Z,11.47
2023-02-20T16:50:24.984Z,11.17
2023-02-20T16:52:54.941Z,11.25
2023-02-20T16:55:24.625Z,10.94
2023-02-20T16:57:53.579Z,10.98
2023-02-20T17:00:23.552Z,10.71
2023-02-20T17:02:52.157Z,10.44
2023-02-20T17:05:22.948Z,10.30
2023-02-20T17:07:51.037Z,10.26
2023-02-20T17:10:18.831Z,10.33
2023-02-20T17:12:46.887Z,10.27
2023-02-20T17:15:16.174Z,10.40
2023-02-20T17:17:44.724Z,10.40
2023-02-20T17:20:13.801Z,10.43
2023-02-20T17:22:44.255Z,10.42
2023-02-20T17:25:15.890Z,10.45
2023-02-20T17:27:44.124Z,10.46
2023-02-20T17:30:12.967Z,10.42
2023-02-20T17:32:41.159Z,10.35
2023-02-20T17:35:10.314Z,10.25
2023-02-20T17:37:38.077Z,10.20
2023-02-20T17:40:07.852Z,10.06
2023-02-20T17:42:35.765Z,10.02
2023-02-20T17:45:03.760Z,9.97
2023-02-20T17:47:33.109Z,9.88
2023-02-20T17:50:00.878Z,9.80
2023-02-20T17:52:28.889Z,9.81
2023-02-20T17:54:56.642Z,9.75
2023-02-20T17:57:26.442Z,9.60
2023-02-20T17:59:54.094Z,9.61
2023-02-20T18:02:21.683Z,9.58
2023-02-20T18:04:49.662Z,9.51
2023-02-20T18:07:17.642Z,9.66
2023-02-20T18:09:46.178Z,9.84
2023-02-20T18:12:13.810Z,10.05
2023-02-20T18:14:44.949Z,10.08
2023-02-20T18:17:12.545Z,9.85
2023-02-20T18:19:40.349Z,9.78
2023-02-20T18:22:07.929Z,9.74
2023-02-20T18:24:36.237Z,9.64
2023-02-20T18:27:04.177Z,9.44
2023-02-20T18:29:32.241Z,9.13
2023-02-20T18:32:01.430Z,8.97
2023-02-20T18:34:31.697Z,8.73
2023-02-20T18:36:59.304Z,8.66
2023-02-20T18:39:27.193Z,8.70
2023-02-20T18:41:57.095Z,8.62
2023-02-20T18:44:25.349Z,8.63
2023-02-20T18:46:53.056Z,8.71
2023-02-20T18:49:22.818Z,8.76
2023-02-20T18:51:50.598Z,8.80
2023-02-20T18:54:20.817Z,8.83
2023-02-20T18:56:48.649Z,8.88
2023-02-20T18:59:16.765Z,9.02
2023-02-20T19:01:45.377Z,9.02
2023-02-20T19:04:15.159Z,8.97
2023-02-20T19:06:44.916Z,8.86
2023-02-20T19:09:15.492Z,8.66
2023-02-20T19:11:43.337Z,8.44
2023-02-20T19:14:11.300Z,8.34
2023-02-20T19:16:38.971Z,8.20
2023-02-20T19:19:07.862Z,8.30
2023-02-20T19:21:35.482Z,8.41
2023-02-20T19:24:05.035Z,8.38
2023-02-20T19:26:32.604Z,8.69
2023-02-20T19:31:33.303Z,8.68
2023-02-20T19:34:01.378Z,8.75
2023-02-20T19:36:28.968Z,8.75
2023-02-20T19:38:56.537Z,8.74
2023-02-20T19:41:26.801Z,8.83
2023-02-20T19:43:55.892Z,8.88
2023-02-20T19:46:25.202Z,9.06
2023-02-20T19:48:53.267Z,9.15
2023-02-20T19:51:22.698Z,9.20
2023-02-20T19:53:51.233Z,9.16
2023-02-20T19:56:18.867Z,9.14
2023-02-20T19:58:47.784Z,9.14
2023-02-20T20:01:17.472Z,9.00
2023-02-20T20:03:45.560Z,8.91
2023-02-20T20:06:15.208Z,8.73
2023-02-20T20:09:01.936Z,8.67
2023-02-20T20:11:30.894Z,8.59
2023-02-20T20:13:59.828Z,8.44
2023-02-20T20:16:27.881Z,8.23
2023-02-20T20:18:55.522Z,8.33
2023-02-20T20:21:23.130Z,8.28
2023-02-20T20:23:54.006Z,8.25
2023-02-20T20:26:25.699Z,8.27
2023-02-20T20:28:53.633Z,8.38
2023-02-20T20:31:24.205Z,8.47
2023-02-20T20:33:52.401Z,8.46
2023-02-20T20:36:21.451Z,8.36
2023-02-20T20:38:49.151Z,8.14
2023-02-20T20:41:16.836Z,7.79
2023-02-20T20:43:44.997Z,7.54
2023-02-20T20:46:14.538Z,7.35
2023-02-20T20:48:44.000Z,7.18
2023-02-20T20:51:13.238Z,7.00
2023-02-20T20:53:40.987Z,6.98
2023-02-20T20:56:10.263Z,6.94
2023-02-20T20:58:37.949Z,6.91
2023-02-20T21:01:06.481Z,7.01
2023-02-20T21:03:34.101Z,6.80
2023-02-20T21:06:04.009Z,6.45
2023-02-20T21:08:33.691Z,6.51
2023-02-20T21:11:01.364Z,6.42
2023-02-20T21:13:28.953Z,6.39
2023-02-20T21:15:56.790Z,6.21
2023-02-20T21:18:24.454Z,6.27
2023-02-20T21:20:52.056Z,6.36
2023-02-20T21:23:20.992Z,6.54
2023-02-20T21:25:49.389Z,6.47
2023-02-20T21:28:17.139Z,6.47
2023-02-20T21:30:45.546Z,6.43
2023-02-20T21:33:13.128Z,6.36
2023-02-20T21:35:40.914Z,6.35
2023-02-20T21:38:08.698Z,6.36
2023-02-20T21:40:38.129Z,6.47
2023-02-20T21:43:23.379Z,6.43
2023-02-20T21:45:50.959Z,6.56
2023-02-20T21:48:18.581Z,6.60
2023-02-20T21:50:46.595Z,6.65
2023-02-20T21:53:16.684Z,6.65
2023-02-20T21:55:46.818Z,6.62
2023-02-20T21:58:19.340Z,6.84
2023-02-20T22:00:46.572Z,7.09
2023-02-20T22:03:13.143Z,7.26
2023-02-20T22:05:39.975Z,7.38
2023-02-20T22:08:26.039Z,7.48
2023-02-20T22:11:13.030Z,7.56
2023-02-20T22:13:58.745Z,7.52
2023-02-20T22:16:44.812Z,7.36
2023-02-20T22:19:30.216Z,7.33
2023-02-20T22:22:19.651Z,7.32
2023-02-20T22:25:05.149Z,7.43
2023-02-20T22:27:52.612Z,7.43
2023-02-20T22:30:38.225Z,7.31
2023-02-20T22:33:24.365Z,7.40
2023-02-20T22:36:09.442Z,7.21
2023-02-20T22:38:55.340Z,7.25
2023-02-20T22:41:41.454Z,7.10
2023-02-20T22:44:27.840Z,7.07
2023-02-20T22:47:13.412Z,7.00
2023-02-20T22:49:58.585Z,7.00
2023-02-20T22:52:44.481Z,7.00
2023-02-20T22:55:30.964Z,6.98
2023-02-20T22:58:16.752Z,6.89
2023-02-20T23:01:03.654Z,6.90
2023-02-20T23:03:49.220Z,6.89
2023-02-20T23:06:37.634Z,6.82
2023-02-20T23:09:24.115Z,6.92
2023-02-20T23:12:09.663Z,7.01
2023-02-20T23:14:55.085Z,6.97
2023-02-20T23:17:42.183Z,7.09
2023-02-20T23:20:33.399Z,7.03
2023-02-20T23:23:19.849Z,7.00
2023-02-20T23:26:05.270Z,7.03
2023-02-20T23:28:51.679Z,6.97
2023-02-20T23:31:37.194Z,6.89
2023-02-20T23:34:24.499Z,6.78
2023-02-20T23:37:11.702Z,6.78
2023-02-20T23:39:57.349Z,6.92
2023-02-20T23:42:43.143Z,7.09
2023-02-20T23:45:28.447Z,7.20
2023-02-20T23:48:14.524Z,7.04
2023-02-20T23:51:01.233Z,7.00
2023-02-20T23:53:47.078Z,6.95
2023-02-20T23:56:32.513Z,6.90
2023-02-20T23:59:18.057Z,6.96
